Time;durP1;ratioP1;P1;durP2;ratioP2;P2;SDS_P1;SDS_P2;PMS_P1;PMS_P2;Temp;Humidity;BMP_temperature;BMP_pressure;BME280_temperature;BME280_humidity;BME280_pressure;Samples;Min_cycle;Max_cycle;Signal;HPM_P1;HPM_P2
2022/10/13 00:00:26;;;;;;;15.60;12.20;;;;;;;19.45;48.87;100360.50;4174626;28;20232;-68
2022/10/13 00:02:27;;;;;;;18.97;12.03;;;;;;;19.53;48.85;100356.78;4169211;28;20315;-68
2022/10/13 00:04:29;;;;;;;18.77;12.47;;;;;;;19.60;48.83;100354.97;4169790;28;20224;-68
2022/10/13 00:06:31;;;;;;;20.40;12.57;;;;;;;18.93;49.56;100407.75;4161000;28;20271;-67
2022/10/13 00:08:33;;;;;;;18.43;12.17;;;;;;;19.18;49.47;100381.13;4174830;28;20236;-68
2022/10/13 00:10:37;;;;;;;18.87;12.07;;;;;;;19.27;49.44;100371.03;4175844;28;20803;-68
2022/10/13 00:12:38;;;;;;;19.43;13.47;;;;;;;19.18;49.59;100380.31;4171475;28;20346;-68
2022/10/13 00:14:40;;;;;;;20.20;12.67;;;;;;;19.32;49.15;100374.78;4162250;28;20236;-68
2022/10/13 00:16:42;;;;;;;22.27;11.97;;;;;;;18.61;50.45;100425.31;4166644;28;20240;-68
2022/10/13 00:18:44;;;;;;;16.73;12.17;;;;;;;19.18;49.40;100372.22;4163661;28;20308;-68
2022/10/13 00:20:48;;;;;;;15.23;11.80;;;;;;;19.44;49.24;100366.94;4162263;28;20306;-68
2022/10/13 00:22:50;;;;;;;16.60;11.73;;;;;;;19.04;49.43;100392.91;4158181;28;20276;-68
2022/10/13 00:24:52;;;;;;;20.57;11.97;;;;;;;18.99;49.62;100398.06;4173112;28;20238;-68
2022/10/13 00:26:53;;;;;;;17.50;11.80;;;;;;;18.71;50.01;100413.19;4169438;28;20242;-68
2022/10/13 00:28:55;;;;;;;15.23;11.70;;;;;;;19.36;48.95;100377.91;4176680;28;20231;-68
2022/10/13 00:30:57;;;;;;;15.90;11.57;;;;;;;19.26;49.08;100382.84;4171179;28;20229;-68
2022/10/13 00:32:59;;;;;;;19.73;12.43;;;;;;;19.40;48.77;100375.63;4171640;28;20240;-68
2022/10/13 00:35:00;;;;;;;17.77;12.37;;;;;;;18.57;49.56;100432.97;4174212;28;20238;-68
2022/10/13 00:37:02;;;;;;;16.70;13.00;;;;;;;18.79;50.29;100398.72;4171996;28;20224;-68
2022/10/13 00:39:04;;;;;;;18.00;11.43;;;;;;;18.33;50.19;100429.66;4174858;28;20258;-67
2022/10/13 00:41:06;;;;;;;16.93;11.13;;;;;;;18.55;50.15;100406.22;4170471;28;20765;-68
2022/10/13 00:43:17;;;;;;;15.80;10.93;;;;;;;18.27;50.77;100424.22;4161266;28;20320;-68
2022/10/13 00:45:28;;;;;;;14.77;10.83;;;;;;;18.35;50.57;100416.00;4151694;28;20228;-68
2022/10/13 00:47:34;;;;;;;13.57;9.97;;;;;;;17.99;51.47;100430.34;4171781;28;20309;-68
2022/10/13 00:49:37;;;;;;;14.17;9.57;;;;;;;18.56;50.18;100390.88;4175541;28;20232;-68
2022/10/13 00:51:43;;;;;;;12.37;9.97;;;;;;;18.85;49.76;100370.22;4169024;28;20315;-68
2022/10/13 00:53:46;;;;;;;15.90;10.30;;;;;;;18.73;49.81;100372.59;4168247;28;20220;-68
2022/10/13 00:55:53;;;;;;;13.10;10.07;;;;;;;18.56;50.08;100386.34;4169282;28;20239;-68
2022/10/13 00:57:57;;;;;;;14.07;10.73;;;;;;;18.99;49.31;100360.31;4168229;28;20228;-68
2022/10/13 01:00:06;;;;;;;16.67;10.73;;;;;;;19.58;48.45;100342.72;4167785;28;20232;-68
2022/10/13 01:02:08;;;;;;;18.53;12.23;;;;;;;19.37;47.96;100384.09;4168607;28;20244;-68
2022/10/13 01:04:09;;;;;;;19.73;13.03;;;;;;;18.83;49.65;100418.03;4174723;28;20224;-68
2022/10/13 01:06:13;;;;;;;16.27;12.23;;;;;;;19.05;49.38;100391.84;4167639;28;20344;-68
2022/10/13 01:08:16;;;;;;;18.87;12.00;;;;;;;19.53;48.39;100370.28;4175108;28;20704;-68
2022/10/13 01:10:31;;;;;;;19.13;11.87;;;;;;;19.61;48.54;100369.31;4158721;28;20228;-68
2022/10/13 01:12:35;;;;;;;20.17;12.00;;;;;;;19.59;48.52;100368.66;4166534;28;20239;-68
2022/10/13 01:14:51;;;;;;;18.93;12.23;;;;;;;18.92;49.81;100408.78;4166449;28;20234;-68
2022/10/13 01:17:15;;;;;;;18.53;12.53;;;;;;;19.78;48.53;100353.56;4170834;28;20322;-68
2022/10/13 01:19:16;;;;;;;17.23;12.33;;;;;;;19.45;48.08;100398.28;4173829;28;20251;-68
2022/10/13 01:21:35;;;;;;;17.33;12.17;;;;;;;19.96;47.65;100361.03;4162792;28;20224;-68
2022/10/13 01:24:01;;;;;;;19.60;12.87;;;;;;;20.17;47.67;100363.53;4164087;28;20240;-68
2022/10/13 01:26:17;;;;;;;20.40;12.80;;;;;;;19.93;48.00;100389.28;4165499;28;20227;-68
2022/10/13 01:28:24;;;;;;;18.90;12.60;;;;;;;19.68;48.22;100399.81;4154376;28;20231;-67
2022/10/13 01:30:27;;;;;;;21.60;13.53;;;;;;;19.81;48.36;100391.75;4156626;28;20232;-68
2022/10/13 01:32:54;;;;;;;20.57;14.07;;;;;;;19.12;49.01;100431.28;4142717;28;20229;-68
2022/10/13 01:35:10;;;;;;;20.17;13.40;;;;;;;19.32;49.17;100414.41;4160557;28;20278;-68
2022/10/13 01:37:21;;;;;;;16.83;11.97;;;;;;;19.13;49.66;100424.88;4133874;28;20919;-67
2022/10/13 01:39:45;;;;;;;20.63;13.70;;;;;;;19.25;49.95;100400.88;4128181;28;20229;-68
2022/10/13 01:41:52;;;;;;;19.47;12.03;;;;;;;18.98;50.29;100412.53;4161080;28;20332;-68
2022/10/13 01:44:25;;;;;;;15.63;12.00;;;;;;;19.05;50.41;100397.22;4151896;28;20263;-68
2022/10/13 01:46:31;;;;;;;18.07;11.93;;;;;;;19.29;49.49;100380.56;4153417;28;20228;-68
2022/10/13 01:48:36;;;;;;;20.40;12.13;;;;;;;18.59;50.52;100412.91;4167223;28;20326;-68
2022/10/13 01:50:38;;;;;;;17.93;13.03;;;;;;;19.30;49.77;100370.59;4164162;28;20330;-68
2022/10/13 01:52:41;;;;;;;21.63;13.20;;;;;;;19.37;49.08;100367.94;4171677;28;20242;-68
2022/10/13 01:54:51;;;;;;;19.47;12.67;;;;;;;19.61;48.78;100353.94;4172042;28;20715;-68
2022/10/13 01:56:53;;;;;;;22.27;13.83;;;;;;;19.89;47.99;100347.53;4171167;28;20715;-68
2022/10/13 01:58:57;;;;;;;18.47;12.60;;;;;;;20.09;48.03;100352.13;4166248;28;20311;-68
2022/10/13 02:01:09;;;;;;;20.37;12.17;;;;;;;19.74;48.25;100376.56;4162693;28;20739;-68
2022/10/13 02:03:25;;;;;;;21.30;14.00;;;;;;;19.71;48.67;100388.63;4160359;28;20232;-68
2022/10/13 02:05:53;;;;;;;18.20;13.10;;;;;;;19.72;48.57;100384.03;4152965;28;20236;-68
2022/10/13 02:08:04;;;;;;;19.07;13.60;;;;;;;19.96;48.37;100377.22;4157627;28;20903;-68
2022/10/13 02:10:24;;;;;;;16.37;11.70;;;;;;;19.92;47.86;100374.13;4159146;28;20228;-68
2022/10/13 02:12:32;;;;;;;20.10;12.87;;;;;;;20.00;47.76;100370.41;4169360;28;20715;-68
2022/10/13 02:14:38;;;;;;;20.67;13.23;;;;;;;19.79;48.32;100384.88;4167603;28;20753;-68
2022/10/13 02:16:43;;;;;;;21.13;13.20;;;;;;;19.60;48.24;100391.91;4167178;28;20643;-68
2022/10/13 02:18:45;;;;;;;18.60;12.80;;;;;;;19.58;48.59;100393.97;4169171;28;20224;-68
2022/10/13 02:20:49;;;;;;;18.87;13.07;;;;;;;18.76;49.70;100421.50;4163845;28;20251;-68
2022/10/13 02:22:56;;;;;;;19.93;12.23;;;;;;;19.35;49.28;100378.09;4171165;28;20230;-68
2022/10/13 02:25:00;;;;;;;16.47;12.23;;;;;;;19.50;48.90;100366.13;4173806;28;20234;-68
2022/10/13 02:27:04;;;;;;;15.83;11.43;;;;;;;19.07;49.35;100387.13;4166738;28;20261;-67
2022/10/13 02:29:08;;;;;;;18.50;11.80;;;;;;;18.29;50.57;100414.94;4172730;28;20247;-68
2022/10/13 02:31:10;;;;;;;18.33;12.37;;;;;;;18.62;50.08;100394.69;4167796;28;20503;-67
2022/10/13 02:33:13;;;;;;;19.27;12.03;;;;;;;18.80;50.02;100384.22;4158892;28;20240;-68
2022/10/13 02:35:14;;;;;;;16.30;11.97;;;;;;;18.91;49.94;100366.69;4171847;28;20247;-68
2022/10/13 02:37:17;;;;;;;15.73;11.67;;;;;;;19.11;49.18;100362.22;4150144;28;20240;-68
2022/10/13 02:39:18;;;;;;;17.93;11.80;;;;;;;18.56;50.60;100369.34;4153064;28;20391;-64
2022/10/13 02:41:20;;;;;;;15.90;11.50;;;;;;;18.97;50.10;100347.03;4171599;28;20391;-68
2022/10/13 02:43:22;;;;;;;22.50;12.20;;;;;;;19.12;49.31;100342.34;4169516;28;20701;-68
2022/10/13 02:45:24;;;;;;;16.97;12.97;;;;;;;18.38;50.91;100394.09;4167600;28;20239;-67
2022/10/13 02:47:25;;;;;;;17.50;12.30;;;;;;;19.63;48.60;100321.38;4168744;28;20236;-68
2022/10/13 02:49:27;;;;;;;16.80;11.00;;;;;;;19.97;47.67;100319.53;4172081;28;20232;-68
2022/10/13 02:51:29;;;;;;;19.63;12.20;;;;;;;20.10;47.43;100324.94;4171608;28;20307;-68
2022/10/13 02:53:30;;;;;;;18.13;11.63;;;;;;;19.68;48.10;100367.44;4172362;28;20742;-68
2022/10/13 02:55:32;;;;;;;18.73;11.77;;;;;;;18.98;49.53;100385.59;4174931;28;20323;-68
2022/10/13 02:57:34;;;;;;;15.60;11.53;;;;;;;18.73;49.92;100388.75;4166580;28;20230;-68
2022/10/13 02:59:35;;;;;;;19.40;11.70;;;;;;;18.56;50.08;100390.88;4161524;28;21801;-68
2022/10/13 03:01:40;;;;;;;15.93;11.13;;;;;;;19.08;49.48;100351.03;4164532;28;20760;-68
2022/10/13 03:03:42;;;;;;;14.93;11.37;;;;;;;18.37;50.69;100393.25;4164233;28;20233;-68
2022/10/13 03:05:44;;;;;;;21.03;11.40;;;;;;;18.89;50.26;100358.81;4143120;28;20232;-68
2022/10/13 03:07:45;;;;;;;15.27;10.83;;;;;;;18.58;50.26;100378.09;4157143;28;20239;-68
2022/10/13 03:09:47;;;;;;;15.47;11.73;;;;;;;18.88;49.84;100345.53;4158428;28;21128;-68
2022/10/13 03:11:49;;;;;;;15.23;10.10;;;;;;;18.59;49.88;100375.19;4156280;28;20244;-68
2022/10/13 03:13:50;;;;;;;17.17;10.20;;;;;;;18.27;50.69;100390.03;4153760;28;20320;-68
2022/10/13 03:15:52;;;;;;;15.67;11.40;;;;;;;18.45;50.37;100381.50;4146767;28;20327;-68
2022/10/13 03:17:56;;;;;;;18.17;11.43;;;;;;;18.98;49.03;100340.59;4152314;28;20319;-68
2022/10/13 03:19:58;;;;;;;16.47;11.23;;;;;;;18.68;50.46;100365.09;4150108;28;20228;-68
2022/10/13 03:22:00;;;;;;;17.23;11.27;;;;;;;18.91;49.45;100346.00;4135466;28;20239;-67
2022/10/13 03:24:01;;;;;;;14.53;11.67;;;;;;;19.06;48.81;100337.75;4157717;28;20660;-68
2022/10/13 03:26:03;;;;;;;17.23;10.67;;;;;;;18.66;49.65;100369.00;4145309;28;20239;-68
2022/10/13 03:28:05;;;;;;;18.80;11.20;;;;;;;18.84;49.33;100349.66;4166044;28;20716;-68
2022/10/13 03:30:07;;;;;;;14.63;11.10;;;;;;;19.10;49.09;100333.63;4155408;28;20737;-69
2022/10/13 03:32:09;;;;;;;19.30;12.40;;;;;;;18.81;49.26;100352.72;4152714;28;20312;-68
2022/10/13 03:34:11;;;;;;;15.00;11.00;;;;;;;18.18;50.50;100385.84;4157103;28;20232;-68
2022/10/13 03:36:13;;;;;;;18.53;11.20;;;;;;;18.36;50.60;100359.28;4156867;28;20979;-68
2022/10/13 03:38:15;;;;;;;14.17;11.33;;;;;;;18.28;50.26;100362.13;4154802;28;20228;-68
2022/10/13 03:40:16;;;;;;;14.20;10.87;;;;;;;17.90;50.86;100383.06;4156473;28;20242;-68
2022/10/13 03:42:18;;;;;;;17.57;10.83;;;;;;;19.09;48.78;100307.69;4143018;28;20323;-67
2022/10/13 03:44:20;;;;;;;15.27;12.03;;;;;;;19.57;47.46;100308.69;4153607;28;20229;-69
2022/10/13 03:46:25;;;;;;;15.70;11.33;;;;;;;20.02;46.75;100314.34;4149885;28;20258;-69
2022/10/13 03:48:27;;;;;;;19.93;10.83;;;;;;;19.88;46.64;100341.31;4155713;28;20231;-70
2022/10/13 03:50:29;;;;;;;16.73;11.83;;;;;;;19.94;46.41;100346.91;4163305;28;20239;-71
2022/10/13 03:52:31;;;;;;;17.90;12.07;;;;;;;19.96;46.47;100358.34;4161323;28;20263;-69
2022/10/13 03:54:32;;;;;;;12.97;11.03;;;;;;;19.41;47.48;100406.97;4165198;28;20311;-69
2022/10/13 03:56:35;;;;;;;18.30;11.70;;;;;;;18.44;49.00;100435.53;4164901;28;20232;-69
2022/10/13 03:58:36;;;;;;;16.87;12.43;;;;;;;18.31;49.49;100426.34;4160693;28;20226;-68
2022/10/13 04:00:38;;;;;;;21.80;12.30;;;;;;;18.10;50.16;100423.66;4161342;28;21841;-70
2022/10/13 04:02:39;;;;;;;16.17;11.93;;;;;;;18.48;49.41;100391.06;4147069;28;20793;-70
2022/10/13 04:04:41;;;;;;;15.47;11.43;;;;;;;18.16;49.56;100407.56;4163159;28;20334;-69
2022/10/13 04:06:43;;;;;;;15.60;9.80;;;;;;;18.08;49.78;100396.94;4164014;28;20227;-68
2022/10/13 04:08:44;;;;;;;17.37;10.50;;;;;;;18.36;49.53;100371.91;4146506;28;20228;-68
2022/10/13 04:10:46;;;;;;;15.07;10.40;;;;;;;17.60;50.35;100402.81;4164906;28;20235;-69
2022/10/13 04:12:48;;;;;;;12.13;10.40;;;;;;;18.04;49.81;100376.78;4163878;28;20319;-65
2022/10/13 04:14:49;;;;;;;13.07;10.10;;;;;;;18.81;48.75;100332.00;4160139;28;20308;-64
2022/10/13 04:16:51;;;;;;;19.67;10.70;;;;;;;18.17;49.55;100376.09;4152214;28;20239;-68
2022/10/13 04:18:59;;;;;;;14.50;10.93;;;;;;;18.01;49.72;100390.63;4162559;28;20647;-67
2022/10/13 04:21:01;;;;;;;23.10;12.23;;;;;;;18.31;49.59;100366.28;4160385;28;20231;-68
2022/10/13 04:23:02;;;;;;;17.83;11.67;;;;;;;18.99;48.24;100320.72;4160935;28;20238;-67
2022/10/13 04:25:05;;;;;;;19.07;12.67;;;;;;;18.80;48.45;100349.22;4150474;28;20764;-68
2022/10/13 04:27:07;;;;;;;14.47;11.00;;;;;;;18.95;47.99;100349.94;4146149;28;20655;-67
2022/10/13 04:29:10;;;;;;;17.13;11.17;;;;;;;18.66;47.90;100375.25;4146147;28;20250;-67
2022/10/13 04:31:12;;;;;;;16.67;11.47;;;;;;;18.45;48.58;100386.88;4150054;28;20315;-67
2022/10/13 04:33:14;;;;;;;18.70;12.17;;;;;;;18.19;49.27;100385.66;4141030;28;20397;-68
2022/10/13 04:35:15;;;;;;;14.93;11.13;;;;;;;18.67;48.64;100360.72;4145567;28;20319;-69
2022/10/13 04:37:17;;;;;;;19.30;11.60;;;;;;;18.65;48.73;100360.09;4174249;22;20227;-34
2022/10/13 04:39:19;;;;;;;16.63;11.60;;;;;;;18.39;49.24;100374.19;4150883;28;20263;-35
2022/10/13 04:41:21;;;;;;;15.83;11.30;;;;;;;18.17;49.38;100382.31;4158514;28;20262;-33
2022/10/13 04:43:22;;;;;;;16.63;10.50;;;;;;;17.58;50.51;100379.81;4156944;28;20266;-34
2022/10/13 04:45:24;;;;;;;15.33;10.67;;;;;;;17.58;51.21;100375.31;4156569;28;20227;-34
2022/10/13 04:47:26;;;;;;;13.17;10.13;;;;;;;17.75;50.55;100354.38;4166208;28;20243;-35
2022/10/13 04:49:28;;;;;;;16.23;10.80;;;;;;;18.55;48.93;100314.66;4165372;28;20286;-39
2022/10/13 04:51:29;;;;;;;15.63;10.67;;;;;;;18.92;48.02;100312.59;4193299;22;20805;-29
2022/10/13 04:53:32;;;;;;;16.13;10.87;;;;;;;18.67;48.57;100341.88;4184704;28;20243;-29
2022/10/13 04:55:36;;;;;;;17.97;11.20;;;;;;;18.15;49.74;100364.69;4183699;28;20235;-30
2022/10/13 04:57:38;;;;;;;14.57;10.23;;;;;;;18.58;48.74;100316.97;4184910;28;20692;-29
2022/10/13 05:02:15;;;;;;;17.53;11.90;;;;;;;15.72;55.65;100269.56;4165491;27;20618;-65
2022/10/13 05:04:17;;;;;;;13.77;11.20;;;;;;;16.32;54.13;100273.19;4184254;28;20266;-65
2022/10/13 05:06:22;;;;;;;18.23;11.53;;;;;;;16.67;53.18;100251.19;4163055;28;20249;-65
2022/10/13 05:08:24;;;;;;;17.13;11.40;;;;;;;16.70;53.28;100266.94;4171884;28;20674;-64
2022/10/13 05:10:25;;;;;;;18.00;11.30;;;;;;;16.99;52.13;100260.69;4199581;28;20230;-65
2022/10/13 05:12:33;;;;;;;16.37;10.63;;;;;;;17.30;51.71;100243.47;4186062;28;20266;-65
2022/10/13 05:14:34;;;;;;;16.27;11.17;;;;;;;16.71;52.54;100282.03;4198220;28;20239;-65
2022/10/13 05:16:36;;;;;;;15.43;10.20;;;;;;;16.85;52.52;100266.91;4203760;28;20329;-65
2022/10/13 05:18:38;;;;;;;17.20;11.00;;;;;;;17.25;51.68;100235.94;4191584;28;20677;-65
2022/10/13 05:20:40;;;;;;;18.87;11.13;;;;;;;17.37;51.12;100251.63;4196043;28;20243;-65
2022/10/13 05:22:41;;;;;;;16.47;10.37;;;;;;;17.45;50.74;100249.63;4179978;28;20547;-65
2022/10/13 05:24:43;;;;;;;15.60;10.40;;;;;;;16.69;52.06;100302.88;4188893;28;20318;-65
2022/10/13 05:26:45;;;;;;;13.47;10.63;;;;;;;16.68;52.58;100293.97;4192194;28;20248;-65
2022/10/13 05:28:46;;;;;;;15.03;11.23;;;;;;;16.74;52.81;100289.72;4198562;28;20236;-65
2022/10/13 05:30:48;;;;;;;14.47;9.93;;;;;;;16.88;52.56;100267.38;4191727;28;20285;-64
2022/10/13 05:32:49;;;;;;;13.23;10.43;;;;;;;17.01;51.92;100269.38;4200454;28;20718;-65
2022/10/13 05:34:54;;;;;;;12.93;10.67;;;;;;;17.65;50.18;100243.59;4198853;28;20235;-65
2022/10/13 05:36:56;;;;;;;20.50;12.67;;;;;;;17.61;49.96;100285.34;4191272;28;20505;-64
2022/10/13 05:39:03;;;;;;;20.03;12.07;;;;;;;17.73;49.46;100299.09;4199893;28;20253;-65
2022/10/13 05:41:07;;;;;;;15.40;11.13;;;;;;;17.79;49.30;100314.47;4202787;28;20270;-65
2022/10/13 05:43:08;;;;;;;14.43;11.77;;;;;;;18.11;48.76;100296.16;4199762;28;20226;-64
2022/10/13 05:45:11;;;;;;;18.10;12.90;;;;;;;18.14;48.92;100301.97;4204094;28;20314;-64
2022/10/13 05:47:12;;;;;;;19.80;13.60;;;;;;;18.03;48.95;100321.28;4204500;28;20400;-64
2022/10/13 05:49:14;;;;;;;18.53;13.73;;;;;;;17.86;49.07;100336.88;4204733;28;20732;-65
2022/10/13 05:51:32;;;;;;;17.13;13.63;;;;;;;17.81;49.50;100340.13;4203176;28;20235;-64
2022/10/13 05:53:36;;;;;;;16.40;12.63;;;;;;;17.46;50.10;100368.72;4200372;28;20235;-64
2022/10/13 05:55:38;;;;;;;18.77;13.30;;;;;;;17.89;49.26;100341.88;4204685;28;20253;-64
2022/10/13 05:57:43;;;;;;;20.30;13.33;;;;;;;17.58;49.81;100363.69;4203877;28;20639;-65
2022/10/13 05:59:59;;;;;;;17.10;13.13;;;;;;;17.65;49.94;100354.69;4204792;28;20227;-64
2022/10/13 06:02:03;;;;;;;15.73;11.30;;;;;;;17.81;49.41;100336.63;4204488;28;20310;-64
2022/10/13 06:04:10;;;;;;;16.77;11.73;;;;;;;17.68;50.01;100350.75;4204567;28;20231;-64
2022/10/13 06:06:12;;;;;;;18.80;12.17;;;;;;;17.58;49.89;100356.47;4189771;28;20726;-65
2022/10/13 06:08:14;;;;;;;17.50;12.27;;;;;;;17.63;50.02;100358.56;4195895;28;20265;-65
2022/10/13 06:10:16;;;;;;;17.90;12.67;;;;;;;17.49;50.19;100352.22;4185644;28;20322;-64
2022/10/13 06:12:18;;;;;;;18.03;13.30;;;;;;;17.81;49.62;100329.38;4177068;28;20681;-64
2022/10/13 06:14:20;;;;;;;20.83;13.70;;;;;;;17.43;49.98;100361.03;4186095;28;20284;-64
2022/10/13 06:16:22;;;;;;;20.53;12.70;;;;;;;17.50;50.35;100359.28;4173115;28;20354;-64
2022/10/13 06:18:23;;;;;;;17.80;12.30;;;;;;;17.54;50.30;100347.13;4168586;28;20211;-64
2022/10/13 06:20:26;;;;;;;21.00;11.50;;;;;;;17.81;49.85;100317.78;4174530;28;20296;-64
2022/10/13 06:22:27;;;;;;;15.03;12.10;;;;;;;17.71;49.94;100330.75;4186687;28;20322;-64
2022/10/13 06:24:29;;;;;;;16.97;11.53;;;;;;;17.58;50.25;100340.34;4189241;28;20319;-64
2022/10/13 06:26:31;;;;;;;19.83;12.87;;;;;;;17.70;50.28;100327.22;4168133;28;20236;-64
2022/10/13 06:28:33;;;;;;;17.87;12.50;;;;;;;17.57;50.40;100337.84;4177268;28;20657;-64
2022/10/13 06:30:36;;;;;;;19.10;12.93;;;;;;;17.84;49.99;100315.56;4187184;28;20236;-64
2022/10/13 06:32:38;;;;;;;19.87;13.20;;;;;;;17.40;50.81;100354.19;4173988;28;20604;-64
2022/10/13 06:34:40;;;;;;;15.53;12.83;;;;;;;17.68;50.44;100321.19;4187165;28;20720;-64
2022/10/13 06:36:41;;;;;;;18.73;13.70;;;;;;;17.80;50.02;100326.88;4175161;28;20289;-64
2022/10/13 06:38:43;;;;;;;18.40;13.43;;;;;;;17.82;50.11;100328.38;4182394;28;20259;-64
2022/10/13 06:40:45;;;;;;;20.23;13.60;;;;;;;17.94;50.00;100317.09;4176552;28;20309;-64
2022/10/13 06:42:50;;;;;;;20.77;14.90;;;;;;;18.16;49.81;100309.84;4172464;28;20603;-64
2022/10/13 06:44:51;;;;;;;19.83;13.63;;;;;;;17.81;50.20;100323.19;4171171;28;20306;-64
2022/10/13 06:46:53;;;;;;;18.70;12.63;;;;;;;17.99;49.72;100314.66;4172634;28;20232;-64
2022/10/13 06:48:54;;;;;;;19.50;13.67;;;;;;;17.79;50.63;100323.38;4172211;28;20226;-64
2022/10/13 06:51:01;;;;;;;25.63;12.90;;;;;;;17.78;50.80;100315.50;4169873;28;20227;-64
2022/10/13 06:53:02;;;;;;;15.87;12.80;;;;;;;18.07;50.03;100300.25;4172476;28;20227;-64
2022/10/13 06:55:05;;;;;;;19.50;13.43;;;;;;;18.11;50.07;100298.84;4174155;28;20236;-64
2022/10/13 06:57:06;;;;;;;19.33;14.40;;;;;;;18.02;50.25;100315.09;4179109;28;20241;-64
2022/10/13 06:59:08;;;;;;;18.10;13.10;;;;;;;18.06;49.96;100314.72;4186237;28;20838;-65
2022/10/13 07:01:12;;;;;;;20.27;14.23;;;;;;;18.19;50.05;100309.47;4188286;28;20234;-64
2022/10/13 07:03:13;;;;;;;21.93;14.13;;;;;;;18.33;49.90;100302.31;4183364;28;20315;-64
2022/10/13 07:05:15;;;;;;;18.80;13.47;;;;;;;18.46;49.25;100305.09;4180104;28;20230;-66
2022/10/13 07:07:17;;;;;;;20.43;13.50;;;;;;;18.42;49.36;100308.38;4170001;28;20237;-64
2022/10/13 07:09:19;;;;;;;18.40;13.70;;;;;;;18.12;50.14;100328.25;4170117;28;20320;-64
2022/10/13 07:11:20;;;;;;;22.67;13.97;;;;;;;18.18;50.18;100323.94;4163151;28;20261;-64
2022/10/13 07:13:22;;;;;;;23.13;13.20;;;;;;;18.33;50.21;100305.81;4164782;28;20232;-64
2022/10/13 07:15:24;;;;;;;22.10;13.53;;;;;;;18.20;50.67;100317.31;4158013;28;20231;-64
2022/10/13 07:17:26;;;;;;;20.60;13.73;;;;;;;18.04;51.09;100331.88;4172035;28;20318;-64
2022/10/13 07:19:28;;;;;;;23.20;14.37;;;;;;;17.86;51.12;100336.88;4170299;28;20242;-64
2022/10/13 07:21:30;;;;;;;28.77;17.30;;;;;;;17.74;51.47;100343.81;4177328;28;20236;-64
2022/10/13 07:23:32;;;;;;;27.60;19.43;;;;;;;18.00;51.15;100305.53;4175687;28;20797;-64
2022/10/13 07:25:34;;;;;;;24.60;17.97;;;;;;;18.12;50.88;100287.88;4174927;28;20314;-64
2022/10/13 07:27:37;;;;;;;25.60;18.70;;;;;;;18.33;50.57;100276.22;4182657;28;20335;-64
2022/10/13 07:29:38;;;;;;;20.87;14.83;;;;;;;18.01;51.24;100310.72;4175121;28;20613;-64
2022/10/13 07:31:42;;;;;;;22.03;13.53;;;;;;;18.28;50.68;100288.59;4172176;28;20302;-64
2022/10/13 07:33:45;;;;;;;17.77;13.13;;;;;;;17.74;51.85;100327.66;4171573;28;20228;-63
2022/10/13 07:35:47;;;;;;;19.40;13.17;;;;;;;18.00;52.11;100313.59;4171876;28;20255;-64
2022/10/13 07:37:51;;;;;;;23.07;15.20;;;;;;;17.95;52.59;100305.28;4168915;28;20327;-64
2022/10/13 07:39:53;;;;;;;21.13;15.07;;;;;;;18.45;51.01;100264.91;4173471;28;20232;-63
2022/10/13 07:41:54;;;;;;;29.60;20.80;;;;;;;18.49;50.60;100266.16;4176533;28;20729;-64
2022/10/13 07:43:56;;;;;;;23.60;16.57;;;;;;;17.41;53.19;100330.84;4183346;28;20314;-64
2022/10/13 07:45:59;;;;;;;20.80;14.57;;;;;;;17.96;52.04;100288.97;4176811;28;20739;-64
2022/10/13 07:48:01;;;;;;;31.50;13.87;;;;;;;15.73;57.44;100334.75;4183000;28;21061;-64
2022/10/13 07:50:03;;;;;;;18.47;12.93;;;;;;;17.69;53.82;100266.38;4198023;28;20224;-64
2022/10/13 07:52:05;;;;;;;18.73;13.23;;;;;;;18.24;52.23;100260.41;4189586;28;20245;-64
2022/10/13 07:54:06;;;;;;;22.93;14.77;;;;;;;18.01;52.22;100283.00;4187574;28;20292;-63
2022/10/13 07:56:10;;;;;;;19.13;13.63;;;;;;;16.95;54.01;100339.97;4186219;28;20529;-64
2022/10/13 07:58:12;;;;;;;20.13;12.90;;;;;;;16.74;55.36;100330.00;4190420;28;20227;-64
2022/10/13 08:00:14;;;;;;;18.67;13.37;;;;;;;17.45;54.48;100276.50;4173425;28;20233;-64
2022/10/13 08:02:15;;;;;;;19.70;14.20;;;;;;;17.41;54.31;100290.50;4187475;28;20242;-64
2022/10/13 08:04:17;;;;;;;24.87;14.27;;;;;;;17.45;54.27;100276.50;4188108;28;20235;-64
2022/10/13 08:06:19;;;;;;;21.83;13.93;;;;;;;17.09;55.73;100306.91;4184296;28;20296;-63
2022/10/13 08:08:21;;;;;;;17.67;12.90;;;;;;;17.99;53.98;100250.09;4185531;28;20222;-64
2022/10/13 08:10:22;;;;;;;22.17;13.77;;;;;;;18.61;52.24;100240.34;4165378;28;20227;-64
2022/10/13 08:12:24;;;;;;;20.07;13.97;;;;;;;18.73;52.13;100254.06;4187502;28;20318;-64
2022/10/13 08:14:26;;;;;;;23.93;14.00;;;;;;;17.62;54.64;100321.97;4183014;28;20847;-64
2022/10/13 08:16:30;;;;;;;21.90;13.30;;;;;;;18.14;53.31;100301.16;4182653;28;20223;-64
2022/10/13 08:18:32;;;;;;;18.83;14.03;;;;;;;18.18;53.19;100300.53;4189075;28;20211;-64
2022/10/13 08:20:34;;;;;;;17.83;14.33;;;;;;;18.41;52.69;100277.94;4181139;28;20766;-64
2022/10/13 08:22:41;;;;;;;17.23;13.73;;;;;;;18.38;52.76;100278.31;4189704;28;20239;-64
2022/10/13 08:24:43;;;;;;;23.63;15.97;;;;;;;17.76;54.80;100318.38;4175605;28;20370;-64
2022/10/13 08:26:45;;;;;;;20.10;15.63;;;;;;;18.32;53.51;100271.84;4179069;28;20913;-64
2022/10/13 08:28:47;;;;;;;21.00;15.90;;;;;;;18.30;53.77;100265.84;4191477;28;20259;-64
2022/10/13 08:31:03;;;;;;;25.57;18.33;;;;;;;17.85;54.62;100294.84;4190891;28;20235;-64
2022/10/13 08:33:05;;;;;;;31.40;20.53;;;;;;;18.39;54.07;100271.88;4191154;28;20746;-64
2022/10/13 08:35:08;;;;;;;32.77;21.27;;;;;;;18.58;53.04;100270.34;4166541;28;20615;-65
2022/10/13 08:37:13;;;;;;;33.37;20.87;;;;;;;18.45;53.59;100276.50;4164124;28;20371;-64
2022/10/13 08:39:15;;;;;;;30.90;19.97;;;;;;;18.31;53.76;100280.97;4160847;28;20238;-64
2022/10/13 08:41:24;;;;;;;32.63;22.03;;;;;;;18.50;53.71;100265.97;4170469;28;20231;-63
2022/10/13 08:43:26;;;;;;;31.93;22.57;;;;;;;18.08;54.50;100300.06;4153344;28;20512;-63
2022/10/13 08:45:30;;;;;;;35.30;22.00;;;;;;;18.54;53.54;100264.53;4153210;28;20228;-64
2022/10/13 08:48:12;;;;;;;30.27;21.57;;;;;;;16.84;56.90;100329.69;4171120;28;20223;-64
2022/10/13 08:50:18;;;;;;;34.77;22.97;;;;;;;17.95;54.91;100275.69;4174022;28;20756;-64
2022/10/13 08:52:23;;;;;;;31.73;22.43;;;;;;;17.67;55.79;100273.81;4168048;28;20223;-64
2022/10/13 08:54:25;;;;;;;32.77;20.50;;;;;;;17.28;56.30;100304.66;4180553;28;20302;-64
2022/10/13 08:56:31;;;;;;;27.63;19.90;;;;;;;16.90;58.04;100299.41;4175886;28;20310;-64
2022/10/13 08:58:34;;;;;;;28.77;19.07;;;;;;;17.24;57.42;100279.97;4169930;28;20314;-64
2022/10/13 09:00:37;;;;;;;29.33;20.40;;;;;;;18.26;54.61;100240.34;4177519;28;20262;-64
2022/10/13 09:02:40;;;;;;;32.90;20.10;;;;;;;17.75;55.25;100297.03;4173676;28;20314;-64
2022/10/13 09:04:47;;;;;;;29.67;20.27;;;;;;;18.26;54.81;100258.38;4178559;28;20254;-64
2022/10/13 09:06:55;;;;;;;28.27;19.40;;;;;;;17.91;54.99;100269.06;4168611;28;20267;-63
2022/10/13 09:09:04;;;;;;;29.07;20.40;;;;;;;18.48;54.27;100251.88;4157099;28;20222;-64
2022/10/13 09:11:09;;;;;;;28.77;20.60;;;;;;;18.54;53.74;100263.69;4171486;28;20307;-64
2022/10/13 09:13:10;;;;;;;30.73;20.73;;;;;;;18.25;54.36;100281.75;4171316;28;20337;-64
2022/10/13 09:15:12;;;;;;;28.67;20.50;;;;;;;18.13;54.28;100291.41;4166588;28;20325;-64
2022/10/13 09:17:20;;;;;;;29.07;19.83;;;;;;;18.67;54.09;100263.75;4179200;28;20603;-64
2022/10/13 09:19:32;;;;;;;28.43;20.80;;;;;;;18.32;54.47;100295.25;4172842;28;20748;-64
2022/10/13 09:21:34;;;;;;;31.67;19.90;;;;;;;18.58;54.21;100262.28;4164605;28;20319;-64
2022/10/13 09:23:36;;;;;;;27.77;20.17;;;;;;;18.52;54.27;100258.50;4162870;28;20242;-64
2022/10/13 09:25:45;;;;;;;29.10;20.80;;;;;;;17.49;55.88;100319.97;4160089;28;20224;-65